createdAt,value
2019-03-18T00:01:22.812Z,45.05
2019-03-18T00:03:51.902Z,45.51
2019-03-18T00:06:21.018Z,46.16
2019-03-18T00:08:49.989Z,45.97
2019-03-18T00:11:18.889Z,46.21
2019-03-18T00:13:47.875Z,46.61
2019-03-18T00:16:16.657Z,47.19
2019-03-18T00:18:45.451Z,47.15
2019-03-18T00:21:14.522Z,46.91
2019-03-18T00:23:43.918Z,47.64
2019-03-18T00:26:13.664Z,48.93
2019-03-18T00:28:43.362Z,48.38
2019-03-18T00:31:12.971Z,48.17
2019-03-18T00:33:41.988Z,48.79
2019-03-18T00:36:11.292Z,48.62
2019-03-18T00:38:40.880Z,49.55
2019-03-18T00:41:10.055Z,49.43
2019-03-18T00:43:39.017Z,49.25
2019-03-18T00:46:08.106Z,49.63
2019-03-18T00:48:37.669Z,49.24
2019-03-18T00:51:06.939Z,49.85
2019-03-18T00:53:36.083Z,49.58
2019-03-18T00:56:05.186Z,49.48
2019-03-18T00:58:34.333Z,50.76
2019-03-18T01:01:04.060Z,50.11
2019-03-18T01:20:18.054Z,50.41
2019-03-18T01:22:47.155Z,50.54
2019-03-18T01:25:17.162Z,50.94
2019-03-18T01:27:46.475Z,51.85
2019-03-18T01:30:15.567Z,51.26
2019-03-18T01:32:44.855Z,51.40
2019-03-18T01:35:14.306Z,51.78
2019-03-18T01:37:44.079Z,50.83
2019-03-18T01:40:13.233Z,51.08
2019-03-18T01:42:42.414Z,51.02
2019-03-18T01:45:11.474Z,51.51
2019-03-18T01:47:40.679Z,51.82
2019-03-18T01:50:09.953Z,50.92
2019-03-18T01:52:38.826Z,51.49
2019-03-18T01:55:08.593Z,51.93
2019-03-18T01:57:37.692Z,52.13
2019-03-18T02:00:07.374Z,52.09
2019-03-18T02:02:36.566Z,52.54
2019-03-18T02:05:05.992Z,53.21
2019-03-18T02:07:35.270Z,53.82
2019-03-18T02:10:04.639Z,54.46
2019-03-18T02:29:17.716Z,54.24
2019-03-18T02:31:46.864Z,54.37
2019-03-18T02:34:15.976Z,53.83
2019-03-18T02:36:44.882Z,54.23
2019-03-18T02:39:14.381Z,54.08
2019-03-18T02:41:43.687Z,54.12
2019-03-18T02:44:12.714Z,54.38
2019-03-18T02:46:42.032Z,54.53
2019-03-18T02:49:11.186Z,55.10
2019-03-18T02:51:40.165Z,54.20
2019-03-18T02:54:09.295Z,54.53
2019-03-18T02:56:38.289Z,54.21
2019-03-18T02:59:07.327Z,54.35
2019-03-18T03:01:36.477Z,55.05
2019-03-18T03:04:05.575Z,54.29
2019-03-18T03:06:34.776Z,53.92
2019-03-18T03:09:04.330Z,55.18
2019-03-18T03:11:34.442Z,54.57
2019-03-18T03:14:02.440Z,54.82
2019-03-18T03:16:31.322Z,55.01
2019-03-18T03:19:00.460Z,55.81
2019-03-18T03:21:29.327Z,55.85
2019-03-18T03:23:58.414Z,55.71
2019-03-18T03:26:27.494Z,56.84
2019-03-18T03:28:57.616Z,55.59
2019-03-18T03:31:26.634Z,55.85
2019-03-18T03:33:55.784Z,55.77
2019-03-18T03:36:24.930Z,56.66
2019-03-18T03:38:53.926Z,56.25
2019-03-18T03:41:23.078Z,55.92
2019-03-18T03:43:52.078Z,55.47
2019-03-18T03:46:21.450Z,55.67
2019-03-18T03:48:50.341Z,55.92
2019-03-18T03:51:20.453Z,55.46
2019-03-18T03:53:49.690Z,55.37
2019-03-18T03:56:18.955Z,55.41
2019-03-18T03:58:48.843Z,56.15
2019-03-18T04:01:17.958Z,55.23
2019-03-18T04:03:46.975Z,54.30
2019-03-18T04:06:16.768Z,54.56
2019-03-18T04:08:45.881Z,54.52
2019-03-18T04:11:15.197Z,53.83
2019-03-18T04:13:44.057Z,53.92
2019-03-18T04:16:13.218Z,53.57
2019-03-18T04:18:42.694Z,53.56
2019-03-18T04:21:11.829Z,53.94
2019-03-18T04:23:40.751Z,53.50
2019-03-18T04:26:10.396Z,53.15
2019-03-18T04:28:40.038Z,53.53
2019-03-18T04:31:09.175Z,52.34
2019-03-18T04:33:39.322Z,52.15
2019-03-18T04:36:08.287Z,51.73
2019-03-18T04:38:37.280Z,52.03
2019-03-18T04:41:06.524Z,52.02
2019-03-18T04:43:35.573Z,51.61
2019-03-18T05:02:50.745Z,54.67
2019-03-18T05:05:20.580Z,53.80
2019-03-18T05:07:49.666Z,53.68
2019-03-18T05:10:18.830Z,52.54
2019-03-18T05:12:47.793Z,52.62
2019-03-18T05:15:16.929Z,52.48
2019-03-18T05:17:46.470Z,52.22
2019-03-18T05:20:16.313Z,51.73
2019-03-18T05:22:45.585Z,51.58
2019-03-18T05:25:14.879Z,52.12
2019-03-18T05:44:29.227Z,52.43
2019-03-18T05:46:59.620Z,53.01
2019-03-18T05:49:28.494Z,53.02
2019-03-18T05:51:59.494Z,53.17
2019-03-18T05:54:28.701Z,53.09
2019-03-18T05:56:58.419Z,53.02
2019-03-18T05:59:27.306Z,53.50
2019-03-18T06:01:56.469Z,53.03
2019-03-18T06:04:25.803Z,54.56
2019-03-18T06:06:54.796Z,53.84
2019-03-18T06:09:23.834Z,56.67
2019-03-18T06:11:52.546Z,53.59
2019-03-18T06:14:22.018Z,52.72
2019-03-18T06:16:51.206Z,53.19
2019-03-18T06:19:20.801Z,53.84
2019-03-18T06:21:51.184Z,53.71
2019-03-18T06:24:20.114Z,53.15
2019-03-18T06:26:49.140Z,53.47
2019-03-18T06:29:18.801Z,52.74
2019-03-18T06:31:47.920Z,53.10
2019-03-18T06:34:17.418Z,52.40
2019-03-18T06:36:47.285Z,52.74
2019-03-18T06:39:17.261Z,51.66
2019-03-18T06:41:46.447Z,51.46
2019-03-18T06:44:15.738Z,50.46
2019-03-18T06:46:45.066Z,50.80
2019-03-18T06:49:14.415Z,50.56
2019-03-18T06:51:43.588Z,50.01
2019-03-18T06:54:12.748Z,50.31
2019-03-18T06:56:42.458Z,49.63
2019-03-18T06:59:12.516Z,49.17
2019-03-18T07:01:41.851Z,48.79
2019-03-18T07:04:10.936Z,48.07
2019-03-18T07:06:40.388Z,48.20
2019-03-18T07:09:10.279Z,47.57
2019-03-18T07:11:39.670Z,47.54
2019-03-18T07:14:08.919Z,47.18
2019-03-18T07:16:38.184Z,46.65
2019-03-18T07:19:07.176Z,46.27
2019-03-18T07:21:36.297Z,46.05
2019-03-18T07:24:05.281Z,47.08
2019-03-18T07:26:34.278Z,45.87
2019-03-18T07:29:03.561Z,45.66
2019-03-18T07:31:33.447Z,45.71
2019-03-18T07:34:03.645Z,44.88
2019-03-18T07:36:32.694Z,44.32
2019-03-18T07:39:01.780Z,44.50
2019-03-18T07:41:30.802Z,44.66
2019-03-18T07:43:59.736Z,43.26
2019-03-18T07:46:29.181Z,43.88
2019-03-18T07:48:58.297Z,44.07
2019-03-18T07:51:33.438Z,43.76
2019-03-18T07:54:02.596Z,43.44
2019-03-18T07:56:32.032Z,43.44
2019-03-18T07:59:01.123Z,41.55
2019-03-18T08:01:30.127Z,40.39
2019-03-18T08:03:59.512Z,39.57
2019-03-18T08:06:28.455Z,40.82
2019-03-18T08:08:57.413Z,40.88
2019-03-18T08:11:27.092Z,39.35
2019-03-18T08:13:56.281Z,39.53
2019-03-18T08:16:25.121Z,40.50
2019-03-18T08:18:54.216Z,39.93
2019-03-18T08:21:23.473Z,38.34
2019-03-18T08:23:52.394Z,39.14
2019-03-18T08:26:22.424Z,39.47
2019-03-18T08:28:52.473Z,38.69
2019-03-18T08:31:21.745Z,38.59
2019-03-18T08:33:50.890Z,38.18
2019-03-18T08:36:19.992Z,37.29
2019-03-18T08:38:49.457Z,37.13
2019-03-18T08:41:18.677Z,36.92
2019-03-18T08:43:47.778Z,37.72
2019-03-18T08:46:16.892Z,37.20
2019-03-18T08:48:55.408Z,37.79
2019-03-18T08:51:15.026Z,36.62
2019-03-18T08:53:44.222Z,36.59
2019-03-18T08:56:13.422Z,35.62
2019-03-18T08:58:42.432Z,35.36
2019-03-18T09:01:11.419Z,34.35
2019-03-18T09:03:40.799Z,33.79
2019-03-18T09:06:10.226Z,33.89
2019-03-18T09:08:40.133Z,35.80
2019-03-18T09:11:09.257Z,33.78
2019-03-18T09:13:39.244Z,33.21
2019-03-18T09:16:09.154Z,34.69
2019-03-18T09:18:38.294Z,34.74
2019-03-18T09:21:07.316Z,34.00
2019-03-18T09:23:36.481Z,34.50
2019-03-18T09:26:05.774Z,32.84
2019-03-18T09:28:34.943Z,33.55
2019-03-18T09:31:04.474Z,32.56
2019-03-18T09:33:34.582Z,32.04
2019-03-18T09:36:03.472Z,31.51
2019-03-18T09:38:32.633Z,30.58
2019-03-18T09:41:01.879Z,30.65
2019-03-18T09:43:31.141Z,30.12
2019-03-18T09:46:00.749Z,31.43
2019-03-18T09:48:30.381Z,29.36
2019-03-18T09:50:59.700Z,29.92
2019-03-18T09:53:28.577Z,30.20
2019-03-18T09:55:57.571Z,30.80
2019-03-18T09:58:26.666Z,31.06
2019-03-18T10:00:55.807Z,29.78
2019-03-18T10:03:25.261Z,29.71
2019-03-18T10:05:54.833Z,28.99
2019-03-18T10:08:25.334Z,28.63
2019-03-18T10:10:53.411Z,28.89
2019-03-18T10:13:24.357Z,28.74
2019-03-18T10:15:53.317Z,26.90
2019-03-18T10:18:22.573Z,27.16
2019-03-18T10:20:51.503Z,28.28
2019-03-18T10:23:20.564Z,27.94
2019-03-18T10:25:49.694Z,27.90
2019-03-18T10:28:18.759Z,27.61
2019-03-18T10:30:47.865Z,27.81
2019-03-18T10:33:16.908Z,26.76
2019-03-18T10:35:45.781Z,26.08
2019-03-18T10:38:14.778Z,25.81
2019-03-18T10:40:44.072Z,26.75
2019-03-18T10:43:13.261Z,26.64
2019-03-18T10:45:42.463Z,26.43
2019-03-18T10:48:11.459Z,25.86
2019-03-18T10:50:40.611Z,25.51
2019-03-18T10:53:09.772Z,26.21
2019-03-18T10:55:39.192Z,25.74
2019-03-18T10:58:08.764Z,25.51
2019-03-18T11:00:37.967Z,24.80
2019-03-18T11:03:07.489Z,25.59
2019-03-18T11:05:36.359Z,24.65
2019-03-18T11:08:06.256Z,24.54
2019-03-18T11:10:35.926Z,23.79
2019-03-18T11:13:04.894Z,24.05
2019-03-18T11:15:34.485Z,24.17
2019-03-18T11:18:04.122Z,23.37
2019-03-18T11:20:33.096Z,23.29
2019-03-18T11:23:02.094Z,23.30
2019-03-18T11:25:31.287Z,23.33
2019-03-18T11:28:01.106Z,23.43
2019-03-18T11:30:30.714Z,22.74
2019-03-18T11:33:00.017Z,21.72
2019-03-18T11:35:29.408Z,21.34
2019-03-18T11:37:58.500Z,20.66
2019-03-18T11:40:27.808Z,20.45
2019-03-18T11:42:57.240Z,19.91
2019-03-18T11:45:26.409Z,20.41
2019-03-18T11:47:55.545Z,20.55
2019-03-18T11:50:24.706Z,20.92
2019-03-18T11:52:53.749Z,19.31
2019-03-18T11:55:22.946Z,19.89
2019-03-18T11:57:52.095Z,18.62
2019-03-18T12:00:21.150Z,19.35
2019-03-18T12:02:50.186Z,19.58
2019-03-18T12:05:19.348Z,19.15
2019-03-18T12:07:48.541Z,19.21
2019-03-18T12:10:18.021Z,19.64
2019-03-18T12:12:47.080Z,19.70
2019-03-18T12:15:16.176Z,18.76
2019-03-18T12:17:45.438Z,18.91
2019-03-18T12:20:24.390Z,18.24
2019-03-18T12:22:43.941Z,18.99
2019-03-18T12:25:13.167Z,19.04
2019-03-18T12:27:42.281Z,18.67
2019-03-18T12:30:14.107Z,18.08
2019-03-18T12:32:43.102Z,18.55
2019-03-18T12:35:12.099Z,17.87
2019-03-18T12:37:41.472Z,17.84
2019-03-18T12:40:12.063Z,17.87
2019-03-18T12:42:41.149Z,18.07
2019-03-18T12:45:11.252Z,18.13
2019-03-18T12:47:40.480Z,17.73
2019-03-18T12:50:12.419Z,18.11
2019-03-18T12:52:42.347Z,17.68
2019-03-18T12:55:11.653Z,17.97
2019-03-18T12:57:40.984Z,17.80
2019-03-18T13:00:14.553Z,16.75
2019-03-18T13:02:43.922Z,17.38
2019-03-18T13:05:12.955Z,16.42
2019-03-18T13:07:42.149Z,16.89
2019-03-18T13:10:12.986Z,16.85
2019-03-18T13:12:42.162Z,16.45
2019-03-18T13:15:12.734Z,17.50
2019-03-18T13:17:43.895Z,18.14
2019-03-18T13:20:12.104Z,17.44
2019-03-18T13:22:41.296Z,17.05
2019-03-18T13:25:10.540Z,17.60
2019-03-18T13:27:39.624Z,16.19
2019-03-18T13:30:15.284Z,15.84
2019-03-18T13:32:41.637Z,15.88
2019-03-18T13:35:10.778Z,14.77
2019-03-18T13:37:40.422Z,14.85
2019-03-18T13:40:10.209Z,15.25
2019-03-18T13:42:39.334Z,16.76
2019-03-18T13:45:10.806Z,16.57
2019-03-18T13:47:39.979Z,16.06
2019-03-18T13:50:10.341Z,15.61
2019-03-18T13:52:39.648Z,15.37
2019-03-18T13:55:09.206Z,15.63
2019-03-18T13:57:38.174Z,15.29
2019-03-18T14:00:09.186Z,14.23
2019-03-18T14:05:13.190Z,13.39
2019-03-18T14:07:42.182Z,14.08
2019-03-18T14:10:12.380Z,12.80
2019-03-18T14:12:42.336Z,12.58
2019-03-18T14:15:13.425Z,12.71
2019-03-18T14:17:42.459Z,12.87
2019-03-18T14:20:12.785Z,12.41
2019-03-18T14:22:41.998Z,13.28
2019-03-18T14:25:11.293Z,14.13
2019-03-18T14:27:40.952Z,13.90
2019-03-18T14:30:12.781Z,13.62
2019-03-18T14:32:41.892Z,13.82
2019-03-18T14:35:11.171Z,14.47
2019-03-18T15:01:06.861Z,14.43
2019-03-18T15:03:36.043Z,14.74
2019-03-18T15:06:05.255Z,15.44
2019-03-18T15:08:35.259Z,15.71
2019-03-18T15:11:04.018Z,15.95
2019-03-18T15:13:34.370Z,15.47
2019-03-18T15:16:03.360Z,16.43
2019-03-18T15:18:34.038Z,17.33
2019-03-18T15:21:03.535Z,16.94
2019-03-18T15:23:32.590Z,16.54
2019-03-18T15:26:01.715Z,17.35
2019-03-18T15:28:31.602Z,17.27
2019-03-18T15:31:01.165Z,18.14
2019-03-18T15:33:30.116Z,17.54
2019-03-18T15:35:59.312Z,17.88
2019-03-18T15:38:29.265Z,17.98
2019-03-18T15:40:58.337Z,17.86
2019-03-18T15:43:28.244Z,18.39
2019-03-18T15:45:58.414Z,19.17
2019-03-18T15:48:27.654Z,18.63
2019-03-18T15:50:56.773Z,18.74
2019-03-18T15:53:26.266Z,19.09
2019-03-18T15:55:57.013Z,18.98
2019-03-18T15:58:26.081Z,20.06
2019-03-18T16:00:55.368Z,20.14
2019-03-18T16:03:24.720Z,20.30
2019-03-18T16:05:53.988Z,20.76
2019-03-18T16:08:23.112Z,20.38
2019-03-18T16:10:53.188Z,20.20
2019-03-18T16:30:06.721Z,21.43
2019-03-18T16:32:35.855Z,21.25
2019-03-18T16:35:05.045Z,21.54
2019-03-18T16:37:34.104Z,22.05
2019-03-18T16:40:03.369Z,22.58
2019-03-18T16:42:33.363Z,22.68
2019-03-18T16:45:02.367Z,23.18
2019-03-18T16:47:31.741Z,23.38
2019-03-18T16:50:00.876Z,23.18
2019-03-18T16:52:35.755Z,23.79
2019-03-18T16:54:59.193Z,23.93
2019-03-18T16:57:28.530Z,24.09
2019-03-18T16:59:57.551Z,24.90
2019-03-18T17:02:26.657Z,24.62
2019-03-18T17:04:56.219Z,24.41
2019-03-18T17:07:25.390Z,24.15
2019-03-18T17:09:54.343Z,23.16
2019-03-18T17:12:23.242Z,23.95
2019-03-18T17:14:52.274Z,23.86
2019-03-18T17:17:21.367Z,24.00
2019-03-18T17:19:51.345Z,25.86
2019-03-18T17:22:20.479Z,26.60
2019-03-18T17:24:49.889Z,26.96
2019-03-18T17:27:19.403Z,26.91
2019-03-18T17:29:48.887Z,27.32
2019-03-18T17:32:17.984Z,28.39
2019-03-18T17:34:47.053Z,28.05
2019-03-18T17:37:16.501Z,28.27
2019-03-18T17:39:45.917Z,28.80
2019-03-18T17:42:15.014Z,29.40
2019-03-18T17:44:44.543Z,29.49
2019-03-18T17:47:13.557Z,29.75
2019-03-18T17:49:42.563Z,29.69
2019-03-18T17:52:11.921Z,29.91
2019-03-18T17:54:44.496Z,30.06
2019-03-18T17:57:11.409Z,29.92
2019-03-18T17:59:40.721Z,29.50
2019-03-18T18:02:09.909Z,30.08
2019-03-18T18:04:39.689Z,30.71
2019-03-18T18:07:08.824Z,30.62
2019-03-18T18:09:38.081Z,30.59
2019-03-18T18:12:07.261Z,30.80
2019-03-18T18:14:36.294Z,30.34
2019-03-18T18:17:05.544Z,30.13
2019-03-18T18:19:34.587Z,30.27
2019-03-18T18:22:03.900Z,30.24
2019-03-18T18:24:33.479Z,30.46
2019-03-18T18:27:02.789Z,30.50
2019-03-18T18:29:31.928Z,30.30
2019-03-18T18:32:00.812Z,30.38
2019-03-18T18:34:29.867Z,30.57
2019-03-18T18:36:58.898Z,30.70
2019-03-18T18:39:28.621Z,30.76
2019-03-18T18:41:57.977Z,30.97
2019-03-18T18:44:27.205Z,31.71
2019-03-18T18:46:56.883Z,32.55
2019-03-18T18:49:25.908Z,32.68
2019-03-18T18:51:55.634Z,32.74
2019-03-18T18:54:25.171Z,32.83
2019-03-18T18:56:54.194Z,32.92
2019-03-18T18:59:23.325Z,32.94
2019-03-18T19:01:53.725Z,32.97
2019-03-18T19:04:22.729Z,33.07
2019-03-18T19:06:51.878Z,33.45
2019-03-18T19:09:21.000Z,33.34
2019-03-18T19:11:50.194Z,34.02
2019-03-18T19:14:19.275Z,34.12
2019-03-18T19:16:48.381Z,34.76
2019-03-18T19:19:18.085Z,35.25
2019-03-18T19:21:47.584Z,35.67
2019-03-18T19:24:16.845Z,36.00
2019-03-18T19:26:46.668Z,35.59
2019-03-18T19:29:16.583Z,36.68
2019-03-18T19:31:45.741Z,36.87
2019-03-18T19:34:14.657Z,36.74
2019-03-18T19:36:43.704Z,37.05
2019-03-18T19:39:13.491Z,37.36
2019-03-18T19:41:42.430Z,37.47
2019-03-18T19:44:11.733Z,37.10
2019-03-18T19:46:40.977Z,37.73
2019-03-18T19:49:10.132Z,37.54
2019-03-18T19:51:39.152Z,37.57
2019-03-18T19:54:08.472Z,37.20
2019-03-18T19:56:38.134Z,37.02
2019-03-18T19:59:07.437Z,37.38
2019-03-18T20:01:37.584Z,38.20
2019-03-18T20:04:06.726Z,38.70
2019-03-18T20:06:35.866Z,38.65
2019-03-18T20:09:06.525Z,39.07
2019-03-18T20:11:35.490Z,38.82
2019-03-18T20:14:04.878Z,38.78
2019-03-18T20:16:33.929Z,38.46
2019-03-18T20:19:03.095Z,38.85
2019-03-18T20:21:31.974Z,38.58
2019-03-18T20:24:04.075Z,39.80
2019-03-18T20:26:30.681Z,40.08
2019-03-18T20:28:59.681Z,40.21
2019-03-18T20:31:28.669Z,40.98
2019-03-18T20:33:57.735Z,40.46
2019-03-18T20:36:26.826Z,40.37
2019-03-18T20:38:56.059Z,40.07
2019-03-18T20:41:25.153Z,40.15
2019-03-18T20:43:55.393Z,40.69
2019-03-18T20:46:24.575Z,40.67
2019-03-18T20:48:53.865Z,40.98
2019-03-18T20:51:23.059Z,40.31
2019-03-18T20:53:53.129Z,40.87
2019-03-18T20:56:22.196Z,41.48
2019-03-18T20:58:51.180Z,42.16
2019-03-18T21:01:20.503Z,42.55
2019-03-18T21:03:49.798Z,41.45
2019-03-18T21:06:18.852Z,42.05
2019-03-18T21:08:47.910Z,41.59
2019-03-18T21:11:17.169Z,41.85
2019-03-18T21:13:56.669Z,41.51
2019-03-18T21:16:15.646Z,41.65
2019-03-18T21:18:44.630Z,41.87
2019-03-18T21:21:13.721Z,42.22
2019-03-18T21:23:43.206Z,42.07
2019-03-18T21:26:12.187Z,42.65
2019-03-18T21:28:41.725Z,42.72
2019-03-18T21:31:11.143Z,42.10
2019-03-18T21:33:40.373Z,42.04
2019-03-18T21:36:09.468Z,42.63
2019-03-18T21:38:38.517Z,42.24
2019-03-18T21:41:08.150Z,42.45
2019-03-18T21:43:37.065Z,43.11
2019-03-18T21:46:06.106Z,42.54
2019-03-18T21:48:35.376Z,42.21
2019-03-18T21:51:04.427Z,42.87
2019-03-18T21:53:34.192Z,42.67
2019-03-18T21:56:03.183Z,43.06
2019-03-18T21:58:33.194Z,42.75
2019-03-18T22:01:01.689Z,43.00
2019-03-18T22:03:31.307Z,43.50
2019-03-18T22:06:01.157Z,43.42
2019-03-18T22:08:30.454Z,43.05
2019-03-18T22:10:59.559Z,43.70
2019-03-18T22:13:28.693Z,45.45
2019-03-18T22:15:57.956Z,45.17
2019-03-18T22:18:27.381Z,45.56
2019-03-18T22:20:57.500Z,45.62
2019-03-18T22:23:27.473Z,45.77
2019-03-18T22:25:56.984Z,45.73
2019-03-18T22:28:26.030Z,45.95
2019-03-18T22:30:55.185Z,45.53
2019-03-18T22:33:24.103Z,45.40
2019-03-18T22:35:53.544Z,45.47
2019-03-18T22:38:22.976Z,45.50
2019-03-18T22:40:52.061Z,45.68
2019-03-18T22:43:21.427Z,46.28
2019-03-18T22:45:50.516Z,47.61
2019-03-18T22:48:19.708Z,47.63
2019-03-18T22:50:50.134Z,47.55
2019-03-18T22:53:19.420Z,47.91
2019-03-18T22:55:48.536Z,47.54
2019-03-18T22:58:19.323Z,47.35
2019-03-18T23:00:49.345Z,47.25
2019-03-18T23:03:18.846Z,47.51
2019-03-18T23:05:47.946Z,47.81
2019-03-18T23:08:17.092Z,47.60
2019-03-18T23:10:46.366Z,48.01
2019-03-18T23:13:15.765Z,47.34
2019-03-18T23:15:45.038Z,46.89
2019-03-18T23:18:14.843Z,47.47
2019-03-18T23:20:44.102Z,47.16
2019-03-18T23:23:13.182Z,46.98
2019-03-18T23:25:42.809Z,46.59
2019-03-18T23:28:11.872Z,46.81
2019-03-18T23:30:41.030Z,46.54
2019-03-18T23:33:10.108Z,46.46
2019-03-18T23:35:39.412Z,46.68
2019-03-18T23:38:09.605Z,46.65
2019-03-18T23:40:38.724Z,46.91
2019-03-18T23:43:07.791Z,46.83
2019-03-18T23:45:37.667Z,46.64
2019-03-18T23:48:06.939Z,47.28
2019-03-18T23:50:36.029Z,47.28
2019-03-18T23:53:05.279Z,47.47
2019-03-18T23:55:34.753Z,47.78
2019-03-18T23:58:03.695Z,47.78
